createdAt,value
2017-07-19T00:00:02.536Z,1009.01
2017-07-19T00:01:02.515Z,1009.01
2017-07-19T00:02:02.497Z,1009
2017-07-19T00:03:02.478Z,1008.95
2017-07-19T00:04:02.457Z,1008.94
2017-07-19T00:05:02.443Z,1008.96
2017-07-19T00:06:02.467Z,1008.91
2017-07-19T00:07:02.398Z,1008.87
2017-07-19T00:08:02.380Z,1008.89
2017-07-19T00:09:02.361Z,1008.81
2017-07-19T00:10:02.341Z,1008.83
2017-07-19T00:11:02.317Z,1008.77
2017-07-19T00:12:02.302Z,1008.81
2017-07-19T00:13:02.278Z,1008.81
2017-07-19T00:14:02.260Z,1008.77
2017-07-19T00:15:02.240Z,1008.78
2017-07-19T00:16:02.217Z,1008.8
2017-07-19T00:17:02.199Z,1008.76
2017-07-19T00:18:02.181Z,1008.75
2017-07-19T00:19:02.162Z,1008.75
2017-07-19T00:20:02.145Z,1008.74
2017-07-19T00:21:02.117Z,1008.74
2017-07-19T00:22:02.102Z,1008.72
2017-07-19T00:23:02.081Z,1008.71
2017-07-19T00:24:02.063Z,1008.69
2017-07-19T00:25:02.044Z,1008.69
2017-07-19T00:26:02.025Z,1008.71
2017-07-19T00:27:02.001Z,1008.69
2017-07-19T00:28:01.982Z,1008.64
2017-07-19T00:29:01.964Z,1008.6
2017-07-19T00:30:01.944Z,1008.58
2017-07-19T00:31:01.923Z,1008.58
2017-07-19T00:32:01.899Z,1008.58
2017-07-19T00:33:01.882Z,1008.57
2017-07-19T00:34:01.861Z,1008.6
2017-07-19T00:35:01.845Z,1008.56
2017-07-19T00:36:01.824Z,1008.57
2017-07-19T00:37:01.802Z,1008.55
2017-07-19T00:38:01.786Z,1008.56
2017-07-19T00:39:01.763Z,1008.55
2017-07-19T00:40:01.744Z,1008.52
2017-07-19T00:41:01.724Z,1008.59
2017-07-19T00:42:01.705Z,1008.54
2017-07-19T00:43:01.684Z,1008.56
2017-07-19T00:44:01.713Z,1008.52
2017-07-19T00:45:01.643Z,1008.5
2017-07-19T00:46:01.622Z,1008.51
2017-07-19T00:47:01.603Z,1008.51
2017-07-19T00:48:01.584Z,1008.52
2017-07-19T00:49:01.564Z,1008.47
2017-07-19T00:50:01.547Z,1008.47
2017-07-19T00:51:01.528Z,1008.49
2017-07-19T00:52:01.503Z,1008.49
2017-07-19T00:53:01.487Z,1008.43
2017-07-19T00:54:01.467Z,1008.45
2017-07-19T00:55:01.445Z,1008.41
2017-07-19T00:56:01.424Z,1008.43
2017-07-19T00:57:01.407Z,1008.36
2017-07-19T00:58:01.384Z,1008.37
2017-07-19T00:59:01.364Z,1008.32
2017-07-19T01:00:01.344Z,1008.34
2017-07-19T01:01:01.324Z,1008.33
2017-07-19T01:02:01.305Z,1008.34
2017-07-19T01:03:01.286Z,1008.33
2017-07-19T01:04:01.265Z,1008.3
2017-07-19T01:05:01.248Z,1008.32
2017-07-19T01:06:01.226Z,1008.32
2017-07-19T01:07:01.205Z,1008.31
2017-07-19T01:08:01.186Z,1008.29
2017-07-19T01:09:01.165Z,1008.27
2017-07-19T01:10:01.144Z,1008.26
2017-07-19T01:11:01.126Z,1008.27
2017-07-19T01:12:01.106Z,1008.26
2017-07-19T01:13:01.085Z,1008.24
2017-07-19T01:14:01.064Z,1008.19
2017-07-19T01:15:01.045Z,1008.2
2017-07-19T01:16:01.027Z,1008.17
2017-07-19T01:17:01.005Z,1008.13
2017-07-19T01:18:00.981Z,1008.17
2017-07-19T01:19:00.968Z,1008.15
2017-07-19T01:20:00.943Z,1008.11
2017-07-19T01:21:00.929Z,1008.1
2017-07-19T01:22:00.904Z,1008.1
2017-07-19T01:23:00.886Z,1008.08
2017-07-19T01:24:00.866Z,1008.08
2017-07-19T01:25:00.847Z,1008.11
2017-07-19T01:26:00.826Z,1008.1
2017-07-19T01:27:00.806Z,1008.1
2017-07-19T01:28:00.785Z,1008.03
2017-07-19T01:29:00.766Z,1008.03
2017-07-19T01:30:00.749Z,1008.05
2017-07-19T01:31:00.729Z,1008
2017-07-19T01:32:00.706Z,1007.98
2017-07-19T01:33:00.691Z,1007.95
2017-07-19T01:34:00.686Z,1007.95
2017-07-19T01:35:00.647Z,1007.88
2017-07-19T01:36:00.629Z,1007.94
2017-07-19T01:37:00.606Z,1007.91
2017-07-19T01:38:00.587Z,1007.98
2017-07-19T01:39:00.566Z,1007.98
2017-07-19T01:40:00.546Z,1007.92
2017-07-19T01:41:00.527Z,1007.94
2017-07-19T01:42:00.506Z,1007.87
2017-07-19T01:43:00.487Z,1007.88
2017-07-19T01:44:00.466Z,1007.86
2017-07-19T01:45:00.447Z,1007.83
2017-07-19T01:46:00.427Z,1007.78
2017-07-19T01:47:00.408Z,1007.86
2017-07-19T01:48:00.386Z,1007.85
2017-07-19T01:49:00.370Z,1007.83
2017-07-19T01:50:00.347Z,1007.82
2017-07-19T01:51:00.325Z,1007.82
2017-07-19T01:52:00.304Z,1007.79
2017-07-19T01:53:00.287Z,1007.81
2017-07-19T01:54:00.264Z,1007.81
2017-07-19T01:55:00.246Z,1007.8
2017-07-19T01:56:00.229Z,1007.83
2017-07-19T01:57:00.266Z,1007.83
2017-07-19T01:58:00.188Z,1007.82
2017-07-19T01:59:00.168Z,1007.85
2017-07-19T02:00:00.148Z,1007.8
2017-07-19T02:01:00.127Z,1007.84
2017-07-19T02:02:00.110Z,1007.83
2017-07-19T02:03:00.089Z,1007.81
2017-07-19T02:04:00.068Z,1007.8
2017-07-19T02:05:00.049Z,1007.81
2017-07-19T02:06:00.027Z,1007.83
2017-07-19T02:07:00.008Z,1007.83
2017-07-19T02:07:59.987Z,1007.8
2017-07-19T02:08:59.965Z,1007.78
2017-07-19T02:09:59.947Z,1007.78
2017-07-19T02:10:59.927Z,1007.76
2017-07-19T02:11:59.905Z,1007.73
2017-07-19T02:12:59.885Z,1007.72
2017-07-19T02:13:59.865Z,1007.79
2017-07-19T02:14:59.850Z,1007.74
2017-07-19T02:15:59.825Z,1007.7
2017-07-19T02:16:59.810Z,1007.67
2017-07-19T02:17:59.789Z,1007.67
2017-07-19T02:18:59.764Z,1007.67
2017-07-19T02:19:59.749Z,1007.64
2017-07-19T02:20:59.723Z,1007.71
2017-07-19T02:21:59.708Z,1007.7
2017-07-19T02:22:59.685Z,1007.72
2017-07-19T02:23:59.666Z,1007.67
2017-07-19T02:24:59.650Z,1007.68
2017-07-19T02:25:59.628Z,1007.66
2017-07-19T02:26:59.610Z,1007.64
2017-07-19T02:27:59.587Z,1007.63
2017-07-19T02:28:59.566Z,1007.62
2017-07-19T02:29:59.544Z,1007.61
2017-07-19T02:30:59.528Z,1007.63
2017-07-19T02:31:59.510Z,1007.62
2017-07-19T02:32:59.485Z,1007.55
2017-07-19T02:33:59.467Z,1007.6
2017-07-19T02:34:59.444Z,1007.57
2017-07-19T02:35:59.423Z,1007.6
2017-07-19T02:36:59.405Z,1007.62
2017-07-19T02:37:59.383Z,1007.56
2017-07-19T02:38:59.365Z,1007.59
2017-07-19T02:39:59.346Z,1007.57
2017-07-19T02:40:59.325Z,1007.61
2017-07-19T02:41:59.302Z,1007.6
2017-07-19T02:42:59.284Z,1007.56
2017-07-19T02:43:59.265Z,1007.58
2017-07-19T02:44:59.294Z,1007.6
2017-07-19T02:45:59.236Z,1007.54
2017-07-19T02:46:59.204Z,1007.54
2017-07-19T02:47:59.184Z,1007.52
2017-07-19T02:48:59.172Z,1007.51
2017-07-19T02:49:59.140Z,1007.46
2017-07-19T02:50:59.122Z,1007.44
2017-07-19T02:51:59.108Z,1007.45
2017-07-19T02:52:59.085Z,1007.36
2017-07-19T02:53:59.063Z,1007.43
2017-07-19T02:54:59.046Z,1007.41
2017-07-19T02:55:59.023Z,1007.41
2017-07-19T02:56:59.004Z,1007.4
2017-07-19T02:57:58.981Z,1007.36
2017-07-19T02:58:58.964Z,1007.36
2017-07-19T02:59:58.940Z,1007.39
2017-07-19T03:00:58.922Z,1007.33
2017-07-19T03:01:58.901Z,1007.32
2017-07-19T03:02:58.882Z,1007.36
2017-07-19T03:03:58.866Z,1007.31
2017-07-19T03:04:58.844Z,1007.32
2017-07-19T03:05:58.823Z,1007.31
2017-07-19T03:06:58.803Z,1007.35
2017-07-19T03:07:58.782Z,1007.29
2017-07-19T03:08:58.763Z,1007.29
2017-07-19T03:09:58.797Z,1007.26
2017-07-19T03:10:58.723Z,1007.24
2017-07-19T03:11:58.703Z,1007.27
2017-07-19T03:12:58.680Z,1007.31
2017-07-19T03:13:58.661Z,1007.29
2017-07-19T03:14:58.643Z,1007.31
2017-07-19T03:15:58.622Z,1007.27
2017-07-19T03:16:58.602Z,1007.27
2017-07-19T03:17:58.580Z,1007.29
2017-07-19T03:18:58.564Z,1007.27
2017-07-19T03:19:58.549Z,1007.29
2017-07-19T03:20:58.534Z,1007.26
2017-07-19T03:21:58.504Z,1007.27
2017-07-19T03:22:58.478Z,1007.32
2017-07-19T03:23:58.461Z,1007.24
2017-07-19T03:24:58.441Z,1007.27
2017-07-19T03:25:58.420Z,1007.3
2017-07-19T03:26:58.401Z,1007.31
2017-07-19T03:27:58.378Z,1007.28
2017-07-19T03:28:58.358Z,1007.32
2017-07-19T03:29:58.338Z,1007.22
2017-07-19T03:30:58.325Z,1007.32
2017-07-19T03:31:58.299Z,1007.26
2017-07-19T03:32:58.283Z,1007.24
2017-07-19T03:33:58.259Z,1007.24
2017-07-19T03:34:58.239Z,1007.25
2017-07-19T03:35:58.220Z,1007.22
2017-07-19T03:36:58.197Z,1007.23
2017-07-19T03:37:58.178Z,1007.24
2017-07-19T03:38:58.160Z,1007.28
2017-07-19T03:39:58.139Z,1007.29
2017-07-19T03:40:58.120Z,1007.28
2017-07-19T03:41:58.098Z,1007.31
2017-07-19T03:42:58.076Z,1007.24
2017-07-19T03:43:58.059Z,1007.28
2017-07-19T03:44:58.038Z,1007.26
2017-07-19T03:45:58.016Z,1007.29
2017-07-19T03:46:57.995Z,1007.28
2017-07-19T03:47:57.976Z,1007.28
2017-07-19T03:48:57.959Z,1007.27
2017-07-19T03:49:57.937Z,1007.24
2017-07-19T03:50:57.916Z,1007.25
2017-07-19T03:51:57.898Z,1007.26
2017-07-19T03:52:57.879Z,1007.26
2017-07-19T03:53:57.862Z,1007.26
2017-07-19T03:54:57.835Z,1007.19
2017-07-19T03:55:57.813Z,1007.19
2017-07-19T03:56:57.797Z,1007.2
2017-07-19T03:57:57.774Z,1007.26
2017-07-19T03:58:57.754Z,1007.23
2017-07-19T03:59:57.735Z,1007.23
2017-07-19T04:00:57.716Z,1007.23
2017-07-19T04:01:57.694Z,1007.2
2017-07-19T04:02:57.675Z,1007.23
2017-07-19T04:03:57.657Z,1007.18
2017-07-19T04:04:57.634Z,1007.16
2017-07-19T04:05:57.619Z,1007.18
2017-07-19T04:06:57.594Z,1007.16
2017-07-19T04:07:57.574Z,1007.18
2017-07-19T04:08:57.554Z,1007.14
2017-07-19T04:09:57.535Z,1007.17
2017-07-19T04:10:57.515Z,1007.18
2017-07-19T04:11:57.493Z,1007.14
2017-07-19T04:12:57.474Z,1007.14
2017-07-19T04:13:57.455Z,1007.13
2017-07-19T04:14:57.435Z,1007.13
2017-07-19T04:15:57.417Z,1007.14
2017-07-19T04:16:57.395Z,1007.15
2017-07-19T04:17:57.378Z,1007.18
2017-07-19T04:18:57.357Z,1007.19
2017-07-19T04:19:57.336Z,1007.2
2017-07-19T04:20:57.313Z,1007.12
2017-07-19T04:21:57.298Z,1007.15
2017-07-19T04:22:57.279Z,1007.21
2017-07-19T04:23:57.254Z,1007.23
2017-07-19T04:24:57.236Z,1007.2
2017-07-19T04:25:57.221Z,1007.16
2017-07-19T04:26:57.196Z,1007.2
2017-07-19T04:27:57.180Z,1007.23
2017-07-19T04:28:57.158Z,1007.18
2017-07-19T04:29:57.139Z,1007.16
2017-07-19T04:30:57.119Z,1007.17
2017-07-19T04:31:57.099Z,1007.16
2017-07-19T04:32:57.080Z,1007.16
2017-07-19T04:33:57.063Z,1007.1
2017-07-19T04:34:57.042Z,1007.12
2017-07-19T04:35:57.023Z,1007.09
2017-07-19T04:36:57.003Z,1007.1
2017-07-19T04:37:56.984Z,1007.02
2017-07-19T04:38:56.967Z,1007.09
2017-07-19T04:39:56.946Z,1007.05
2017-07-19T04:40:56.926Z,1007.05
2017-07-19T04:41:56.909Z,1007.08
2017-07-19T04:42:56.891Z,1007.11
2017-07-19T04:43:56.869Z,1007.08
2017-07-19T04:44:56.851Z,1007.11
2017-07-19T04:45:56.838Z,1007.05
2017-07-19T04:46:56.813Z,1007.11
2017-07-19T04:47:56.792Z,1007.08
2017-07-19T04:48:56.775Z,1007.11
2017-07-19T04:49:56.753Z,1007.11
2017-07-19T04:50:56.737Z,1007.11
2017-07-19T04:51:56.720Z,1007.13
2017-07-19T04:52:56.696Z,1007.09
2017-07-19T04:53:56.677Z,1007.12
2017-07-19T04:54:56.660Z,1007.14
2017-07-19T04:55:56.641Z,1007.13
2017-07-19T04:56:56.620Z,1007.06
2017-07-19T04:57:56.601Z,1007.05
2017-07-19T04:58:56.584Z,1007.02
2017-07-19T04:59:56.563Z,1007.03
2017-07-19T05:00:56.547Z,1007.03
2017-07-19T05:01:56.525Z,1007.01
2017-07-19T05:02:56.508Z,1007.02
2017-07-19T05:03:56.490Z,1007.03
2017-07-19T05:04:56.471Z,1007.03
2017-07-19T05:05:56.461Z,1007.03
2017-07-19T05:06:56.433Z,1007
2017-07-19T05:07:56.418Z,1006.96
2017-07-19T05:08:56.398Z,1007.03
2017-07-19T05:09:56.381Z,1007.01
2017-07-19T05:10:56.363Z,1006.99
2017-07-19T05:11:56.351Z,1007
2017-07-19T05:12:56.327Z,1006.93
2017-07-19T05:13:56.312Z,1006.98
2017-07-19T05:14:56.291Z,1007.04
2017-07-19T05:15:56.276Z,1007
2017-07-19T05:16:56.257Z,1007.07
2017-07-19T05:17:56.239Z,1007.04
2017-07-19T05:18:56.223Z,1007.02
2017-07-19T05:19:56.203Z,1006.98
2017-07-19T05:20:56.187Z,1006.96
2017-07-19T05:21:56.171Z,1006.97
2017-07-19T05:22:56.153Z,1006.97
2017-07-19T05:23:56.145Z,1006.99
2017-07-19T05:24:56.128Z,1006.98
2017-07-19T05:25:56.103Z,1006.97
2017-07-19T05:26:56.085Z,1006.95
2017-07-19T05:27:56.071Z,1006.97
2017-07-19T05:28:56.052Z,1006.96
2017-07-19T05:29:56.031Z,1006.95
2017-07-19T05:30:56.017Z,1006.95
2017-07-19T05:31:55.998Z,1006.91
2017-07-19T05:32:55.986Z,1006.93
2017-07-19T05:33:55.967Z,1006.96
2017-07-19T05:34:55.949Z,1006.91
2017-07-19T05:35:55.933Z,1006.95
2017-07-19T05:36:55.916Z,1006.93
2017-07-19T05:37:55.905Z,1006.93
2017-07-19T05:38:55.884Z,1006.94
2017-07-19T05:39:55.869Z,1006.95
2017-07-19T05:40:55.850Z,1006.93
2017-07-19T05:41:55.835Z,1006.97
2017-07-19T05:42:55.819Z,1006.92
2017-07-19T05:43:55.803Z,1006.87
2017-07-19T05:44:55.788Z,1006.89
2017-07-19T05:45:55.773Z,1006.86
2017-07-19T05:46:55.758Z,1006.86
2017-07-19T05:47:55.739Z,1006.88
2017-07-19T05:48:55.726Z,1006.89
2017-07-19T05:49:55.713Z,1006.89
2017-07-19T05:50:55.691Z,1006.87
2017-07-19T05:51:55.676Z,1006.88
2017-07-19T05:52:55.663Z,1006.88
2017-07-19T05:53:55.645Z,1006.81
2017-07-19T05:54:55.630Z,1006.82
2017-07-19T05:55:55.619Z,1006.79
2017-07-19T05:56:55.600Z,1006.78
2017-07-19T05:57:55.585Z,1006.78
2017-07-19T05:58:55.618Z,1006.76
2017-07-19T05:59:55.554Z,1006.72
2017-07-19T06:00:55.542Z,1006.79
2017-07-19T06:01:55.525Z,1006.76
2017-07-19T06:02:55.506Z,1006.83
2017-07-19T06:03:55.493Z,1006.82
2017-07-19T06:04:55.526Z,1006.88
2017-07-19T06:05:55.461Z,1006.83
2017-07-19T06:06:55.452Z,1006.88
2017-07-19T06:07:55.433Z,1006.84
2017-07-19T06:08:55.419Z,1006.8
2017-07-19T06:09:55.402Z,1006.74
2017-07-19T06:10:55.388Z,1006.75
2017-07-19T06:11:55.373Z,1006.75
2017-07-19T06:12:55.358Z,1006.74
2017-07-19T06:13:55.345Z,1006.72
2017-07-19T06:14:55.334Z,1006.7
2017-07-19T06:15:55.338Z,1006.73
2017-07-19T06:16:55.299Z,1006.79
2017-07-19T06:17:55.286Z,1006.71
2017-07-19T06:18:55.273Z,1006.75
2017-07-19T06:19:55.257Z,1006.76
2017-07-19T06:20:55.243Z,1006.68
2017-07-19T06:21:55.229Z,1006.67
2017-07-19T06:22:55.218Z,1006.67
2017-07-19T06:23:55.201Z,1006.71
2017-07-19T06:24:55.236Z,1006.65
2017-07-19T06:25:55.172Z,1006.65
2017-07-19T06:26:55.162Z,1006.72
2017-07-19T06:27:55.144Z,1006.62
2017-07-19T06:28:55.134Z,1006.67
2017-07-19T06:29:55.115Z,1006.64
2017-07-19T06:30:55.102Z,1006.62
2017-07-19T06:31:55.086Z,1006.65
2017-07-19T06:32:55.073Z,1006.67
2017-07-19T06:33:55.059Z,1006.58
2017-07-19T06:34:55.045Z,1006.61
2017-07-19T06:35:55.032Z,1006.62
2017-07-19T06:36:55.019Z,1006.6
2017-07-19T06:37:55.006Z,1006.65
2017-07-19T06:38:55.002Z,1006.68
2017-07-19T06:39:54.977Z,1006.72
2017-07-19T06:40:54.964Z,1006.62
2017-07-19T06:41:54.954Z,1006.66
2017-07-19T06:42:54.937Z,1006.68
2017-07-19T06:43:54.925Z,1006.66
2017-07-19T06:44:54.914Z,1006.63
2017-07-19T06:45:54.896Z,1006.66
2017-07-19T06:46:54.885Z,1006.59
2017-07-19T06:47:54.871Z,1006.62
2017-07-19T06:48:54.856Z,1006.54
2017-07-19T06:49:54.843Z,1006.53
2017-07-19T06:50:54.835Z,1006.49
2017-07-19T06:51:54.819Z,1006.47
2017-07-19T06:52:54.814Z,1006.44
2017-07-19T06:53:54.792Z,1006.4
2017-07-19T06:54:54.780Z,1006.41
2017-07-19T06:55:54.767Z,1006.38
2017-07-19T06:56:54.755Z,1006.41
2017-07-19T06:57:54.791Z,1006.35
2017-07-19T06:58:54.727Z,1006.36
2017-07-19T06:59:54.717Z,1006.39
2017-07-19T07:00:54.702Z,1006.26
2017-07-19T07:01:54.693Z,1006.21
2017-07-19T07:02:54.681Z,1006.13
2017-07-19T07:03:54.667Z,1006.1
2017-07-19T07:04:54.655Z,1006.06
2017-07-19T07:05:54.644Z,1006.06
2017-07-19T07:06:54.633Z,1006.04
2017-07-19T07:07:54.618Z,1006.05
2017-07-19T07:08:54.608Z,1005.96
2017-07-19T07:09:54.597Z,1005.99
2017-07-19T07:10:54.590Z,1005.95
2017-07-19T07:11:54.574Z,1005.94
2017-07-19T07:12:54.563Z,1005.9
2017-07-19T07:13:54.553Z,1005.89
2017-07-19T07:14:54.547Z,1005.88
2017-07-19T07:15:54.530Z,1005.87
2017-07-19T07:16:54.522Z,1005.82
2017-07-19T07:17:54.509Z,1005.89
2017-07-19T07:18:54.499Z,1005.82
2017-07-19T07:19:54.485Z,1005.84
2017-07-19T07:20:54.478Z,1005.89
2017-07-19T07:21:54.464Z,1005.87
2017-07-19T07:22:54.453Z,1005.83
2017-07-19T07:23:54.441Z,1005.87
2017-07-19T07:24:54.479Z,1005.88
2017-07-19T07:25:54.423Z,1005.92
2017-07-19T07:26:54.421Z,1005.87
2017-07-19T07:27:54.401Z,1005.81
2017-07-19T07:28:54.388Z,1005.8
2017-07-19T07:29:54.377Z,1005.77
2017-07-19T07:30:54.365Z,1005.78
2017-07-19T07:31:54.356Z,1005.8
2017-07-19T07:32:54.343Z,1005.87
2017-07-19T07:33:54.334Z,1005.86
2017-07-19T07:34:54.325Z,1005.86
2017-07-19T07:35:54.316Z,1005.88
2017-07-19T07:36:54.306Z,1005.84
2017-07-19T07:37:54.291Z,1005.87
2017-07-19T07:38:54.279Z,1005.9
2017-07-19T07:39:54.271Z,1005.8
2017-07-19T07:40:54.259Z,1005.77
2017-07-19T07:41:54.246Z,1005.73
2017-07-19T07:42:54.241Z,1005.73
2017-07-19T07:43:54.230Z,1005.8
2017-07-19T07:44:54.218Z,1005.72
2017-07-19T07:45:54.208Z,1005.71
2017-07-19T07:46:54.198Z,1005.73
2017-07-19T07:47:54.187Z,1005.73
2017-07-19T07:48:54.179Z,1005.73
2017-07-19T07:49:54.166Z,1005.73
2017-07-19T07:50:54.160Z,1005.69
2017-07-19T07:51:54.148Z,1005.72
2017-07-19T07:52:54.133Z,1005.74
2017-07-19T07:53:54.127Z,1005.71
2017-07-19T07:54:54.118Z,1005.72
2017-07-19T07:55:54.102Z,1005.66
2017-07-19T07:56:54.098Z,1005.62
2017-07-19T07:57:54.084Z,1005.59
2017-07-19T07:58:54.075Z,1005.57
2017-07-19T07:59:54.064Z,1005.55
2017-07-19T08:00:54.057Z,1005.55
2017-07-19T08:01:54.045Z,1005.47
2017-07-19T08:02:54.033Z,1005.49
2017-07-19T08:03:54.025Z,1005.57
2017-07-19T08:04:54.014Z,1005.52
2017-07-19T08:05:54.005Z,1005.55
2017-07-19T08:06:53.995Z,1005.53
2017-07-19T08:07:53.985Z,1005.54
2017-07-19T08:08:53.989Z,1005.59
2017-07-19T08:09:53.963Z,1005.59
2017-07-19T08:10:53.953Z,1005.59
2017-07-19T08:11:53.945Z,1005.57
2017-07-19T08:12:53.937Z,1005.57
2017-07-19T08:13:53.925Z,1005.54
2017-07-19T08:14:53.922Z,1005.64
2017-07-19T08:15:53.903Z,1005.6
2017-07-19T08:16:53.896Z,1005.57
2017-07-19T08:17:53.884Z,1005.55
2017-07-19T08:18:53.876Z,1005.52
2017-07-19T08:19:53.864Z,1005.53
2017-07-19T08:20:53.854Z,1005.59
2017-07-19T08:21:53.844Z,1005.54
2017-07-19T08:22:53.834Z,1005.48
2017-07-19T08:23:53.829Z,1005.46
2017-07-19T08:24:53.818Z,1005.45
2017-07-19T08:25:53.814Z,1005.41
2017-07-19T08:26:53.797Z,1005.43
2017-07-19T08:27:53.793Z,1005.36
2017-07-19T08:28:53.784Z,1005.3
2017-07-19T08:29:53.772Z,1005.32
2017-07-19T08:30:53.760Z,1005.19
2017-07-19T08:31:53.752Z,1005.18
2017-07-19T08:32:53.746Z,1005.15
2017-07-19T08:33:53.784Z,1005.08
2017-07-19T08:34:53.727Z,1005.12
2017-07-19T08:35:53.718Z,1005.18
2017-07-19T08:36:53.709Z,1005.19
2017-07-19T08:37:53.702Z,1005.2
2017-07-19T08:38:53.693Z,1005.22
2017-07-19T08:39:53.688Z,1005.35
2017-07-19T08:40:53.674Z,1005.32
2017-07-19T08:41:53.665Z,1005.33
2017-07-19T08:42:53.659Z,1005.32
2017-07-19T08:43:53.648Z,1005.39
2017-07-19T08:44:53.641Z,1005.3
2017-07-19T08:45:53.631Z,1005.28
2017-07-19T08:46:53.623Z,1005.3
2017-07-19T08:47:53.611Z,1005.25
2017-07-19T08:48:53.603Z,1005.27
2017-07-19T08:49:53.592Z,1005.28
2017-07-19T08:50:53.583Z,1005.29
2017-07-19T08:51:53.575Z,1005.28
2017-07-19T08:52:53.565Z,1005.26
2017-07-19T08:53:53.557Z,1005.22
2017-07-19T08:54:53.545Z,1005.24
2017-07-19T08:55:53.538Z,1005.19
2017-07-19T08:56:53.525Z,1005.13
2017-07-19T08:57:53.516Z,1005.16
2017-07-19T08:58:53.513Z,1005.15
2017-07-19T08:59:53.496Z,1005.11
2017-07-19T09:00:53.490Z,1005.13
2017-07-19T09:01:53.479Z,1005.08
2017-07-19T09:02:53.468Z,1005.05
2017-07-19T09:03:53.462Z,1005.16
2017-07-19T09:04:53.447Z,1005.12
2017-07-19T09:05:53.447Z,1005.08
2017-07-19T09:06:53.435Z,1005.09
2017-07-19T09:07:53.420Z,1005.19
2017-07-19T09:08:53.413Z,1005.1
2017-07-19T09:09:53.399Z,1005.2
2017-07-19T09:10:53.390Z,1005.19
2017-07-19T09:11:53.385Z,1005.15
2017-07-19T09:12:53.372Z,1005.26
2017-07-19T09:13:53.362Z,1005.16
2017-07-19T09:14:53.355Z,1005.2
2017-07-19T09:15:53.342Z,1005.12
2017-07-19T09:16:53.339Z,1005.17
2017-07-19T09:17:53.326Z,1005.17
2017-07-19T09:18:53.367Z,1005.18
2017-07-19T09:19:53.307Z,1005.12
2017-07-19T09:20:53.297Z,1005.13
2017-07-19T09:21:53.288Z,1005.07
2017-07-19T09:22:53.383Z,1005.04
2017-07-19T09:23:53.272Z,1005
2017-07-19T09:24:53.261Z,1004.98
2017-07-19T09:25:53.249Z,1005.04
2017-07-19T09:26:53.241Z,1005.05
2017-07-19T09:27:53.236Z,1004.97
2017-07-19T09:28:53.222Z,1005.03
2017-07-19T09:29:53.215Z,1004.95
2017-07-19T09:30:53.202Z,1004.94
2017-07-19T09:31:53.195Z,1004.98
2017-07-19T09:32:53.185Z,1004.88
2017-07-19T09:33:53.174Z,1004.93
2017-07-19T09:34:53.165Z,1004.93
2017-07-19T09:35:53.155Z,1004.89
2017-07-19T09:36:53.145Z,1004.93
2017-07-19T09:37:53.139Z,1004.9
2017-07-19T09:38:53.130Z,1004.91
2017-07-19T09:39:53.119Z,1004.86
2017-07-19T09:40:53.160Z,1004.85
2017-07-19T09:41:53.100Z,1004.88
2017-07-19T09:42:53.094Z,1004.86
2017-07-19T09:43:53.083Z,1004.82
2017-07-19T09:44:53.073Z,1004.76
2017-07-19T09:45:53.067Z,1004.74
2017-07-19T09:46:53.061Z,1004.78
2017-07-19T09:47:53.102Z,1004.73
2017-07-19T09:48:53.047Z,1004.79
2017-07-19T09:49:53.035Z,1004.8
2017-07-19T09:50:53.028Z,1004.76
2017-07-19T09:51:53.016Z,1004.78
2017-07-19T09:52:53.010Z,1004.71
2017-07-19T09:53:53.003Z,1004.78
2017-07-19T09:54:52.993Z,1004.82
2017-07-19T09:55:52.985Z,1004.69
2017-07-19T09:56:52.978Z,1004.65
2017-07-19T09:57:52.969Z,1004.73
2017-07-19T09:58:52.963Z,1004.65
2017-07-19T09:59:52.956Z,1004.65
2017-07-19T10:00:52.953Z,1004.61
2017-07-19T10:01:52.940Z,1004.62
2017-07-19T10:02:52.932Z,1004.65
2017-07-19T10:03:52.931Z,1004.7
2017-07-19T10:04:52.919Z,1004.65
2017-07-19T10:05:52.911Z,1004.79
2017-07-19T10:06:52.910Z,1004.77
2017-07-19T10:07:52.897Z,1004.79
2017-07-19T10:08:52.893Z,1004.81
2017-07-19T10:09:52.884Z,1004.71
2017-07-19T10:10:52.876Z,1004.74
2017-07-19T10:11:52.869Z,1004.73
2017-07-19T10:12:52.860Z,1004.72
2017-07-19T10:13:52.860Z,1004.67
2017-07-19T10:14:52.847Z,1004.66
2017-07-19T10:15:52.842Z,1004.62
2017-07-19T10:16:52.834Z,1004.67
2017-07-19T10:17:52.876Z,1004.62
2017-07-19T10:18:52.825Z,1004.69
2017-07-19T10:19:52.809Z,1004.7
2017-07-19T10:20:52.812Z,1004.71
2017-07-19T10:21:52.800Z,1004.7
2017-07-19T10:22:52.790Z,1004.65
2017-07-19T10:23:52.786Z,1004.61
2017-07-19T10:24:52.784Z,1004.56
2017-07-19T10:25:52.774Z,1004.55
2017-07-19T10:26:52.768Z,1004.5
2017-07-19T10:27:52.763Z,1004.49
2017-07-19T10:28:52.761Z,1004.44
2017-07-19T10:29:52.752Z,1004.51
2017-07-19T10:30:52.743Z,1004.47
2017-07-19T10:31:52.789Z,1004.49
2017-07-19T10:32:52.731Z,1004.45
2017-07-19T10:33:52.729Z,1004.39
2017-07-19T10:34:52.720Z,1004.41
2017-07-19T10:35:52.715Z,1004.31
2017-07-19T10:36:52.706Z,1004.32
2017-07-19T10:37:52.703Z,1004.24
2017-07-19T10:38:52.704Z,1004.34
2017-07-19T10:39:52.693Z,1004.32
2017-07-19T10:40:52.685Z,1004.31
2017-07-19T10:41:52.682Z,1004.31
2017-07-19T10:42:52.676Z,1004.33
2017-07-19T10:43:52.721Z,1004.4
2017-07-19T10:44:52.664Z,1004.28
2017-07-19T10:45:52.659Z,1004.29
2017-07-19T10:46:52.652Z,1004.35
2017-07-19T10:47:52.644Z,1004.26
2017-07-19T10:48:52.641Z,1004.3
2017-07-19T10:49:52.636Z,1004.29
2017-07-19T10:50:52.627Z,1004.27
2017-07-19T10:51:52.624Z,1004.31
2017-07-19T10:52:52.623Z,1004.28
2017-07-19T10:53:52.613Z,1004.32
2017-07-19T10:54:52.608Z,1004.26
2017-07-19T10:55:52.600Z,1004.24
2017-07-19T10:56:52.594Z,1004.33
2017-07-19T10:57:52.590Z,1004.18
2017-07-19T10:58:52.586Z,1004.15
2017-07-19T10:59:52.578Z,1004.18
2017-07-19T11:00:52.576Z,1004.16
2017-07-19T11:01:52.566Z,1004.13
2017-07-19T11:02:52.560Z,1004.12
2017-07-19T11:03:52.554Z,1004.12
2017-07-19T11:04:52.555Z,1004.08
2017-07-19T11:05:52.545Z,1004.08
2017-07-19T11:06:52.541Z,1004.14
2017-07-19T11:07:52.539Z,1004.08
2017-07-19T11:08:52.531Z,1004.11
2017-07-19T11:09:52.523Z,1004.1
2017-07-19T11:10:52.518Z,1003.95
2017-07-19T11:11:52.513Z,1004
2017-07-19T11:12:52.506Z,1003.87
2017-07-19T11:13:52.501Z,1003.96
2017-07-19T11:14:52.496Z,1003.85
2017-07-19T11:15:52.517Z,1003.86
2017-07-19T11:16:52.491Z,1003.87
2017-07-19T11:17:52.483Z,1003.81
2017-07-19T11:18:52.475Z,1003.85
2017-07-19T11:19:52.467Z,1003.8
2017-07-19T11:20:52.462Z,1003.65
2017-07-19T11:21:52.456Z,1003.62
2017-07-19T11:22:52.452Z,1003.68
2017-07-19T11:23:52.449Z,1003.68
2017-07-19T11:24:52.444Z,1003.62
2017-07-19T11:25:52.430Z,1003.65
2017-07-19T11:26:52.422Z,1003.62
2017-07-19T11:27:52.417Z,1003.56
2017-07-19T11:28:52.406Z,1003.58
2017-07-19T11:29:52.399Z,1003.58
2017-07-19T11:30:52.391Z,1003.59
2017-07-19T11:31:52.381Z,1003.49
2017-07-19T11:32:52.372Z,1003.54
2017-07-19T11:33:52.362Z,1003.53
2017-07-19T11:34:52.352Z,1003.46
2017-07-19T11:35:52.344Z,1003.42
2017-07-19T11:36:52.329Z,1003.39
2017-07-19T11:37:52.325Z,1003.4
2017-07-19T11:38:52.308Z,1003.3
2017-07-19T11:39:52.295Z,1003.25
2017-07-19T11:40:52.284Z,1003.2
2017-07-19T11:41:52.271Z,1003.21
2017-07-19T11:42:52.264Z,1003.23
2017-07-19T11:43:52.248Z,1003.3
2017-07-19T11:44:52.239Z,1003.3
2017-07-19T11:45:52.228Z,1003.38
2017-07-19T11:46:52.213Z,1003.21
2017-07-19T11:47:52.204Z,1003.23
2017-07-19T11:48:52.189Z,1003.27
2017-07-19T11:49:52.175Z,1003.28
2017-07-19T11:50:52.164Z,1003.24
2017-07-19T11:51:52.153Z,1003.24
2017-07-19T11:52:52.141Z,1003.26
2017-07-19T11:53:52.124Z,1003.18
2017-07-19T11:54:52.117Z,1003.23
2017-07-19T11:55:52.100Z,1003.32
2017-07-19T11:56:52.090Z,1003.29
2017-07-19T11:57:52.073Z,1003.34
2017-07-19T11:58:52.062Z,1003.23
2017-07-19T11:59:52.049Z,1003.26
2017-07-19T12:00:52.036Z,1003.28
2017-07-19T12:01:52.024Z,1003.29
2017-07-19T12:02:52.010Z,1003.31
2017-07-19T12:03:51.996Z,1003.35
2017-07-19T12:04:51.982Z,1003.32
2017-07-19T12:05:51.972Z,1003.35
2017-07-19T12:06:51.958Z,1003.42
2017-07-19T12:07:51.944Z,1003.39